Time;durP1;ratioP1;P1;durP2;ratioP2;P2;SDS_P1;SDS_P2;PMS_P1;PMS_P2;Temp;Humidity;BMP_temperature;BMP_pressure;BME280_temperature;BME280_humidity;BME280_pressure;Samples;Min_cycle;Max_cycle;Signal;HPM_P1;HPM_P2
2024/02/11 00:02:09;;;;;;;25.30;17.92;;;10.20;99.90;;;;;;5032888;28;20075;-74
2024/02/11 00:04:35;;;;;;;23.73;17.75;;;10.20;99.90;;;;;;5033824;28;20501;-73
2024/02/11 00:07:00;;;;;;;23.02;17.23;;;10.20;99.90;;;;;;5033005;28;20030;-74
2024/02/11 00:09:27;;;;;;;25.63;17.52;;;10.10;99.90;;;;;;5032083;28;20032;-74
2024/02/11 00:11:53;;;;;;;22.98;17.75;;;10.10;99.90;;;;;;5031087;28;20021;-75
2024/02/11 00:14:19;;;;;;;22.23;16.73;;;10.10;99.90;;;;;;5036624;28;20032;-75
2024/02/11 00:16:45;;;;;;;25.83;17.90;;;10.10;99.90;;;;;;5034841;28;20021;-75
2024/02/11 00:19:11;;;;;;;25.35;17.75;;;10.10;99.90;;;;;;5034217;28;20512;-74
2024/02/11 00:21:37;;;;;;;24.35;17.02;;;10.10;99.90;;;;;;5033671;28;20037;-74
2024/02/11 00:24:03;;;;;;;25.42;17.77;;;10.00;99.90;;;;;;5032893;28;20049;-75
2024/02/11 00:26:28;;;;;;;28.17;20.20;;;10.00;99.90;;;;;;5032951;28;20136;-74
2024/02/11 00:28:54;;;;;;;24.20;18.83;;;10.00;99.90;;;;;;5033342;28;20034;-75
2024/02/11 00:31:20;;;;;;;26.58;18.67;;;10.00;99.90;;;;;;5030491;28;20031;-74
2024/02/11 00:33:45;;;;;;;29.95;20.90;;;10.00;99.90;;;;;;5032737;28;20504;-75
2024/02/11 00:36:11;;;;;;;25.42;19.23;;;10.00;99.90;;;;;;5034335;28;20025;-74
2024/02/11 00:38:36;;;;;;;26.48;17.98;;;10.00;99.90;;;;;;5033231;28;20104;-75
2024/02/11 00:41:03;;;;;;;27.17;19.95;;;10.00;99.90;;;;;;5030636;28;20037;-74
2024/02/11 00:43:29;;;;;;;27.90;19.65;;;10.00;99.90;;;;;;5034827;28;20026;-74
2024/02/11 00:45:55;;;;;;;27.17;19.80;;;10.00;99.90;;;;;;5036235;28;20098;-75
2024/02/11 00:48:22;;;;;;;27.90;20.40;;;10.00;99.90;;;;;;5032098;28;20056;-74
2024/02/11 00:50:49;;;;;;;25.77;19.42;;;10.00;99.90;;;;;;5030027;28;20048;-75
2024/02/11 00:53:14;;;;;;;30.13;20.50;;;10.00;99.90;;;;;;5032371;28;20078;-74
2024/02/11 00:55:41;;;;;;;30.23;21.48;;;10.00;99.90;;;;;;5033615;28;20034;-74
2024/02/11 00:58:09;;;;;;;30.20;22.33;;;10.00;99.90;;;;;;5034065;28;20053;-76
2024/02/11 01:00:35;;;;;;;25.65;18.90;;;10.00;99.90;;;;;;5018861;28;20069;-75
2024/02/11 01:03:01;;;;;;;27.40;20.23;;;10.10;99.90;;;;;;5032575;28;20080;-74
2024/02/11 01:05:26;;;;;;;30.23;19.50;;;10.10;99.90;;;;;;5032240;28;20416;-74
2024/02/11 01:07:52;;;;;;;28.10;19.45;;;10.10;99.90;;;;;;5035161;28;20021;-75
2024/02/11 01:10:18;;;;;;;29.67;20.65;;;10.10;99.90;;;;;;5034183;28;20144;-75
2024/02/11 01:12:45;;;;;;;35.72;23.75;;;10.10;99.90;;;;;;5030411;28;20033;-75
2024/02/11 01:15:13;;;;;;;26.38;18.38;;;10.10;99.90;;;;;;5032613;28;20033;-74
2024/02/11 01:17:40;;;;;;;27.83;19.58;;;10.10;99.90;;;;;;5035888;28;20504;-75
2024/02/11 01:20:09;;;;;;;27.40;20.25;;;10.10;99.90;;;;;;5030840;28;20052;-74
2024/02/11 01:22:35;;;;;;;30.92;19.48;;;10.10;99.90;;;;;;5026756;28;20026;-74
2024/02/11 01:25:01;;;;;;;29.58;20.67;;;10.10;99.90;;;;;;5040105;28;20485;-75
2024/02/11 01:27:26;;;;;;;30.60;20.45;;;10.10;99.90;;;;;;5033803;28;20036;-75
2024/02/11 01:29:52;;;;;;;32.25;21.80;;;10.10;99.90;;;;;;5031917;28;20017;-75
2024/02/11 01:32:18;;;;;;;26.98;19.92;;;10.10;99.90;;;;;;5035801;28;20045;-75
2024/02/11 01:34:43;;;;;;;25.55;19.38;;;10.10;99.90;;;;;;5031107;28;20021;-75
2024/02/11 01:37:09;;;;;;;29.05;21.02;;;10.10;99.90;;;;;;5031994;28;20037;-75
2024/02/11 01:39:35;;;;;;;30.55;22.02;;;10.10;99.90;;;;;;5037960;28;20030;-75
2024/02/11 01:42:03;;;;;;;28.83;20.52;;;10.10;99.90;;;;;;5028595;28;20043;-74
2024/02/11 01:44:29;;;;;;;30.42;20.58;;;10.10;99.90;;;;;;5030420;28;20026;-73
2024/02/11 01:46:56;;;;;;;28.08;20.17;;;10.10;99.90;;;;;;5034555;28;20091;-73
2024/02/11 01:49:22;;;;;;;30.60;21.17;;;10.10;99.90;;;;;;5039383;28;20121;-73
2024/02/11 01:51:49;;;;;;;30.90;21.60;;;10.00;99.90;;;;;;5034013;28;20087;-73
2024/02/11 01:54:16;;;;;;;27.63;20.25;;;10.00;99.90;;;;;;5024607;28;20025;-73
2024/02/11 01:56:43;;;;;;;24.67;17.85;;;10.00;99.90;;;;;;5031624;28;20067;-73
2024/02/11 01:59:09;;;;;;;27.60;20.15;;;10.10;99.90;;;;;;5036801;28;20040;-73
2024/02/11 02:01:36;;;;;;;26.10;20.02;;;10.10;99.90;;;;;;5032125;28;20057;-72
2024/02/11 02:04:03;;;;;;;27.45;20.40;;;10.10;99.90;;;;;;5030011;28;20055;-73
2024/02/11 02:06:29;;;;;;;26.95;19.25;;;10.10;99.90;;;;;;5032329;28;20036;-73
2024/02/11 02:08:57;;;;;;;27.45;21.75;;;10.10;99.90;;;;;;5031537;28;20394;-73
2024/02/11 02:11:23;;;;;;;29.90;21.95;;;10.10;99.90;;;;;;5031792;28;20029;-73
2024/02/11 02:13:49;;;;;;;28.30;20.48;;;10.00;99.90;;;;;;5030582;28;20025;-75
2024/02/11 02:16:15;;;;;;;30.70;21.60;;;10.10;99.90;;;;;;5031089;28;20537;-75
2024/02/11 02:18:45;;;;;;;29.08;20.35;;;10.10;99.90;;;;;;5031796;28;20022;-74
2024/02/11 02:21:10;;;;;;;27.45;20.15;;;10.10;99.90;;;;;;5032393;28;20086;-75
2024/02/11 02:23:36;;;;;;;29.13;21.38;;;10.10;99.90;;;;;;5031235;28;20030;-75
2024/02/11 02:26:08;;;;;;;28.10;21.23;;;10.10;99.90;;;;;;5028726;28;20397;-75
2024/02/11 02:28:34;;;;;;;28.02;20.00;;;10.10;99.90;;;;;;5039825;28;20037;-75
2024/02/11 02:31:00;;;;;;;28.13;19.92;;;10.10;99.90;;;;;;5049288;28;20389;-75
2024/02/11 02:33:25;;;;;;;28.10;20.67;;;10.10;99.90;;;;;;5034256;28;20026;-75
2024/02/11 02:35:54;;;;;;;29.58;20.80;;;10.10;99.90;;;;;;5028835;28;20424;-75
2024/02/11 02:38:19;;;;;;;28.00;19.70;;;10.20;99.90;;;;;;5034028;28;20036;-75
2024/02/11 02:40:45;;;;;;;29.63;21.95;;;10.10;99.90;;;;;;5029985;28;20037;-74
2024/02/11 02:43:11;;;;;;;28.20;20.80;;;10.20;99.90;;;;;;5030931;28;20117;-75
2024/02/11 02:45:37;;;;;;;29.33;21.33;;;10.20;99.90;;;;;;5030202;28;20025;-75
2024/02/11 02:48:05;;;;;;;32.45;21.45;;;10.10;99.90;;;;;;5029939;28;20037;-75
2024/02/11 02:50:31;;;;;;;27.83;20.58;;;10.20;99.90;;;;;;5036137;28;20029;-75
2024/02/11 02:52:56;;;;;;;30.30;21.85;;;10.10;99.90;;;;;;5023561;28;20076;-74
2024/02/11 02:55:22;;;;;;;34.35;23.17;;;10.10;99.90;;;;;;5028469;28;20038;-75
2024/02/11 02:57:48;;;;;;;28.25;20.27;;;10.10;99.90;;;;;;5030118;28;20056;-74
2024/02/11 03:00:16;;;;;;;27.80;20.30;;;10.10;99.90;;;;;;5031250;28;20489;-75
2024/02/11 03:02:42;;;;;;;33.08;22.23;;;10.10;99.90;;;;;;5030953;28;20497;-76
2024/02/11 03:05:08;;;;;;;30.27;22.45;;;10.10;99.90;;;;;;5030947;28;20029;-75
2024/02/11 03:07:38;;;;;;;30.85;21.52;;;10.10;99.90;;;;;;5028750;28;20072;-75
2024/02/11 03:10:05;;;;;;;38.50;21.88;;;10.10;99.90;;;;;;5045773;28;20037;-75
2024/02/11 03:12:31;;;;;;;31.20;22.58;;;10.00;99.90;;;;;;5029818;28;20501;-75
2024/02/11 03:14:57;;;;;;;28.40;21.10;;;10.00;99.90;;;;;;5030015;28;20140;-75
2024/02/11 03:17:22;;;;;;;31.88;22.35;;;10.10;99.90;;;;;;5028642;28;20158;-75
2024/02/11 03:19:48;;;;;;;30.75;20.30;;;10.10;99.90;;;;;;5033487;28;20078;-75
2024/02/11 03:22:14;;;;;;;29.92;20.55;;;10.10;99.90;;;;;;5030415;28;20520;-75
2024/02/11 03:24:40;;;;;;;31.35;21.85;;;10.10;99.90;;;;;;5030141;28;20183;-75
2024/02/11 03:27:07;;;;;;;28.75;20.70;;;10.10;99.90;;;;;;5028785;28;20083;-75
2024/02/11 03:29:35;;;;;;;28.23;20.67;;;10.20;99.90;;;;;;5030096;28;20022;-75
2024/02/11 03:32:01;;;;;;;29.13;21.17;;;10.20;99.90;;;;;;5030046;28;20029;-75
2024/02/11 03:34:27;;;;;;;30.48;20.75;;;10.10;99.90;;;;;;5030679;28;20041;-75
2024/02/11 03:36:52;;;;;;;28.95;20.80;;;10.10;99.90;;;;;;5030185;28;20087;-74
2024/02/11 03:39:22;;;;;;;29.60;20.65;;;10.10;99.90;;;;;;5028355;28;20033;-74
2024/02/11 03:41:48;;;;;;;29.45;21.55;;;10.10;99.90;;;;;;5034429;28;20047;-75
2024/02/11 03:44:13;;;;;;;30.63;20.65;;;10.00;99.90;;;;;;5040159;28;20096;-75
2024/02/11 03:46:39;;;;;;;29.35;21.25;;;10.00;99.90;;;;;;5030407;28;20036;-75
2024/02/11 03:49:05;;;;;;;27.20;20.35;;;10.00;99.90;;;;;;5027532;28;20053;-75
2024/02/11 03:51:31;;;;;;;27.92;20.20;;;10.00;99.90;;;;;;5028656;28;20056;-75
2024/02/11 03:54:01;;;;;;;30.60;21.33;;;10.00;99.90;;;;;;5029593;28;20026;-74
2024/02/11 03:56:28;;;;;;;32.45;21.00;;;9.90;99.90;;;;;;5029439;28;20075;-75
2024/02/11 03:58:57;;;;;;;31.52;22.30;;;9.90;99.90;;;;;;5028394;28;20029;-74
2024/02/11 04:01:22;;;;;;;28.92;20.60;;;9.90;99.90;;;;;;5024522;28;20049;-75
2024/02/11 04:03:48;;;;;;;31.65;21.17;;;10.00;99.90;;;;;;5040961;28;20035;-75
2024/02/11 04:06:16;;;;;;;29.77;20.45;;;9.90;99.90;;;;;;5029005;28;20163;-75
2024/02/11 04:08:42;;;;;;;31.92;21.58;;;10.00;99.90;;;;;;5032370;28;20021;-74
2024/02/11 04:11:12;;;;;;;33.55;22.83;;;10.00;99.90;;;;;;5033473;28;20116;-75
2024/02/11 04:13:38;;;;;;;31.55;20.90;;;10.00;99.90;;;;;;5034457;28;20029;-75
2024/02/11 04:16:15;;;;;;;31.77;21.67;;;10.00;99.90;;;;;;5032649;28;20140;-75
2024/02/11 04:18:43;;;;;;;32.67;21.50;;;10.00;99.90;;;;;;5033212;28;20079;-75
2024/02/11 04:21:10;;;;;;;28.13;21.23;;;10.00;99.90;;;;;;5033560;28;20048;-75
2024/02/11 04:23:37;;;;;;;30.83;22.60;;;10.00;99.90;;;;;;5035872;28;20386;-75
2024/02/11 04:26:10;;;;;;;32.22;23.05;;;9.90;99.90;;;;;;5031351;28;20440;-75
2024/02/11 04:28:36;;;;;;;27.02;21.00;;;9.90;99.90;;;;;;5031300;28;20032;-74
2024/02/11 04:31:04;;;;;;;33.97;22.85;;;10.00;99.90;;;;;;5031128;28;20029;-74
2024/02/11 04:33:30;;;;;;;32.95;22.23;;;10.00;99.90;;;;;;5031383;28;20103;-75
2024/02/11 04:35:56;;;;;;;30.13;20.80;;;10.00;99.90;;;;;;5032165;28;20017;-75
2024/02/11 04:38:23;;;;;;;32.65;23.23;;;10.00;99.90;;;;;;5035461;28;20017;-75
2024/02/11 04:40:51;;;;;;;34.33;23.33;;;10.00;99.90;;;;;;5030380;28;20501;-75
2024/02/11 04:43:17;;;;;;;31.05;21.95;;;10.00;99.90;;;;;;5033608;28;20032;-75
2024/02/11 04:45:43;;;;;;;28.85;21.23;;;10.00;99.90;;;;;;5033584;28;20035;-75
2024/02/11 04:48:09;;;;;;;29.33;22.70;;;10.00;99.90;;;;;;5030154;28;20132;-75
2024/02/11 04:50:36;;;;;;;33.08;22.80;;;9.90;99.90;;;;;;5032398;28;20021;-75
2024/02/11 04:53:02;;;;;;;31.13;22.52;;;9.90;99.90;;;;;;5031595;28;20029;-75
2024/02/11 04:55:38;;;;;;;32.00;22.45;;;9.90;99.90;;;;;;5032160;28;20029;-75
2024/02/11 04:58:07;;;;;;;30.95;22.73;;;9.90;99.90;;;;;;5031654;28;20083;-75
2024/02/11 05:00:36;;;;;;;34.63;23.52;;;9.90;99.90;;;;;;5027133;28;20386;-75
2024/02/11 05:03:06;;;;;;;37.00;24.85;;;9.90;99.90;;;;;;5032408;28;20182;-75
2024/02/11 05:05:33;;;;;;;30.83;22.42;;;9.90;99.90;;;;;;5029793;28;20026;-74
2024/02/11 05:08:03;;;;;;;34.40;23.98;;;9.90;99.90;;;;;;5033592;28;20037;-75
2024/02/11 05:10:35;;;;;;;34.85;20.83;;;9.90;99.90;;;;;;5036120;28;20117;-75
2024/02/11 05:13:04;;;;;;;;;;;9.90;99.90;;;;;;5030835;28;20759;-76
2024/02/11 05:15:31;;;;;;;28.65;20.73;;;9.90;99.90;;;;;;5030293;28;20028;-75
2024/02/11 05:17:56;;;;;;;29.77;19.95;;;9.90;99.90;;;;;;5032081;28;20101;-75
2024/02/11 05:20:23;;;;;;;32.83;23.10;;;9.90;99.90;;;;;;5037987;28;20560;-75
2024/02/11 05:22:55;;;;;;;31.90;20.98;;;10.00;99.90;;;;;;5029486;28;20096;-75
2024/02/11 05:25:21;;;;;;;30.58;21.45;;;10.00;99.90;;;;;;5032949;28;20048;-75
2024/02/11 05:28:05;;;;;;;29.23;21.15;;;10.00;99.90;;;;;;5030918;28;20532;-74
2024/02/11 05:30:37;;;;;;;33.25;23.10;;;10.00;99.90;;;;;;5030094;28;20056;-75
2024/02/11 05:33:03;;;;;;;30.47;21.97;;;10.10;99.90;;;;;;5026752;28;20022;-75
2024/02/11 05:35:34;;;;;;;33.47;20.65;;;10.10;99.90;;;;;;5022993;28;20406;-75
2024/02/11 05:38:01;;;;;;;36.75;22.35;;;10.10;99.90;;;;;;5027796;28;20032;-75
2024/02/11 05:40:37;;;;;;;34.65;22.60;;;10.10;99.90;;;;;;5032393;28;20063;-75
2024/02/11 05:43:05;;;;;;;32.38;22.10;;;10.10;99.90;;;;;;5029561;28;20025;-75
2024/02/11 05:45:32;;;;;;;34.88;23.73;;;10.10;99.90;;;;;;5029959;28;20029;-73
2024/02/11 05:47:58;;;;;;;31.55;21.83;;;10.10;99.90;;;;;;5027624;28;20042;-74
2024/02/11 05:50:26;;;;;;;36.08;24.15;;;10.10;99.90;;;;;;5030648;28;20036;-73
2024/02/11 05:52:52;;;;;;;36.22;23.58;;;10.10;99.90;;;;;;5029393;28;20474;-73
2024/02/11 05:55:18;;;;;;;33.47;22.83;;;10.10;99.90;;;;;;5027828;28;20173;-75
2024/02/11 05:57:45;;;;;;;37.83;23.98;;;10.10;99.90;;;;;;5027150;28;20390;-74
2024/02/11 06:00:12;;;;;;;36.67;22.77;;;10.10;99.90;;;;;;5029023;28;20034;-74
2024/02/11 06:02:49;;;;;;;33.47;23.27;;;10.10;99.90;;;;;;5022840;28;20191;-73
2024/02/11 06:05:15;;;;;;;30.58;20.60;;;10.20;99.90;;;;;;5027868;28;20084;-73
2024/02/11 06:07:54;;;;;;;30.23;20.80;;;10.10;99.90;;;;;;5030885;28;20108;-73
2024/02/11 06:10:23;;;;;;;30.67;21.58;;;10.10;99.90;;;;;;5029147;28;20029;-73
2024/02/11 06:12:49;;;;;;;28.05;17.65;;;10.10;99.90;;;;;;5027239;28;20018;-73
2024/02/11 06:15:20;;;;;;;20.25;14.40;;;10.10;99.90;;;;;;5030600;28;20117;-73
2024/02/11 06:17:51;;;;;;;16.25;11.05;;;10.10;99.90;;;;;;5027851;28;20029;-73
2024/02/11 06:20:18;;;;;;;17.23;11.60;;;9.90;99.90;;;;;;5029656;28;20037;-74
2024/02/11 06:22:52;;;;;;;17.42;11.85;;;9.70;99.90;;;;;;5026048;28;20087;-73
2024/02/11 06:25:24;;;;;;;16.38;11.38;;;9.60;99.90;;;;;;5019971;28;20022;-73
2024/02/11 06:27:51;;;;;;;15.02;10.00;;;9.50;99.90;;;;;;5025126;28;20021;-73
2024/02/11 06:30:18;;;;;;;17.38;10.77;;;9.40;99.90;;;;;;5024954;28;20397;-73
2024/02/11 06:32:45;;;;;;;19.83;12.40;;;9.30;99.90;;;;;;5028093;28;20021;-72
2024/02/11 06:35:12;;;;;;;18.05;11.85;;;9.20;99.90;;;;;;5029059;28;20029;-73
2024/02/11 06:37:38;;;;;;;17.98;10.82;;;9.00;99.90;;;;;;5028242;28;20051;-73
2024/02/11 06:40:11;;;;;;;19.05;11.95;;;8.90;99.90;;;;;;5026482;28;20086;-73
2024/02/11 06:42:37;;;;;;;17.83;11.52;;;8.80;99.90;;;;;;5030912;28;20473;-73
2024/02/11 06:45:06;;;;;;;20.40;12.57;;;8.80;99.90;;;;;;5029565;28;20024;-73
2024/02/11 06:47:34;;;;;;;22.33;13.20;;;8.70;99.90;;;;;;5029326;28;20489;-73
2024/02/11 06:50:00;;;;;;;21.00;11.90;;;8.60;99.90;;;;;;5022470;28;20052;-73
2024/02/11 06:52:27;;;;;;;20.33;11.75;;;8.60;99.90;;;;;;5029335;28;20470;-73
2024/02/11 06:54:53;;;;;;;18.35;10.80;;;8.50;99.90;;;;;;5028789;28;20552;-72
2024/02/11 06:57:20;;;;;;;30.85;12.98;;;8.50;99.90;;;;;;5035010;28;20029;-73
2024/02/11 06:59:47;;;;;;;25.42;12.00;;;8.50;99.90;;;;;;5029298;28;20028;-73
2024/02/11 07:02:14;;;;;;;23.70;11.35;;;8.40;99.90;;;;;;5048774;28;20037;-73
2024/02/11 07:04:43;;;;;;;24.00;10.75;;;8.40;99.90;;;;;;5029590;28;20331;-73
2024/02/11 07:07:09;;;;;;;26.88;12.77;;;8.40;99.90;;;;;;5031328;28;20036;-74
2024/02/11 07:09:35;;;;;;;26.42;10.93;;;8.40;99.90;;;;;;5028982;28;20548;-73
2024/02/11 07:12:01;;;;;;;23.73;10.95;;;8.40;99.90;;;;;;5024976;28;20033;-73
2024/02/11 07:14:27;;;;;;;26.05;11.15;;;8.30;99.90;;;;;;5031183;28;20025;-73
2024/02/11 07:16:53;;;;;;;26.23;11.45;;;8.40;99.90;;;;;;5030250;28;20025;-74
2024/02/11 07:19:24;;;;;;;22.08;9.45;;;8.40;99.90;;;;;;5030440;28;20033;-73
2024/02/11 07:21:51;;;;;;;22.48;9.00;;;8.40;99.90;;;;;;5029924;28;20324;-74
2024/02/11 07:24:17;;;;;;;21.90;9.63;;;8.40;99.90;;;;;;5030177;28;20061;-73
2024/02/11 07:26:43;;;;;;;22.15;8.85;;;8.40;99.90;;;;;;5029990;28;20112;-74
2024/02/11 07:29:09;;;;;;;22.15;8.48;;;8.30;99.90;;;;;;5029571;28;20113;-74
2024/02/11 07:31:36;;;;;;;22.85;8.40;;;8.30;99.90;;;;;;5028035;28;20461;-73
2024/02/11 07:34:02;;;;;;;17.45;7.38;;;8.30;99.90;;;;;;5028775;28;20053;-74
2024/02/11 07:36:28;;;;;;;16.05;6.55;;;8.40;99.90;;;;;;5019413;28;20056;-74
2024/02/11 07:38:57;;;;;;;14.77;6.28;;;8.30;99.90;;;;;;5016032;28;20033;-74
2024/02/11 07:41:23;;;;;;;18.67;7.07;;;8.30;99.90;;;;;;5029206;28;20523;-75
2024/02/11 07:43:53;;;;;;;18.48;7.68;;;8.30;99.90;;;;;;5031116;28;20038;-74
2024/02/11 07:46:19;;;;;;;19.08;8.07;;;8.30;99.90;;;;;;5029818;28;20037;-74
2024/02/11 07:48:45;;;;;;;21.05;7.97;;;8.30;99.90;;;;;;5033129;28;20072;-74
2024/02/11 07:51:14;;;;;;;18.80;8.73;;;8.30;99.90;;;;;;5033423;28;20468;-74
2024/02/11 07:53:40;;;;;;;22.08;10.82;;;8.30;99.90;;;;;;5033505;28;20037;-74
2024/02/11 07:56:13;;;;;;;20.33;10.02;;;8.30;99.90;;;;;;5025588;28;20037;-75
2024/02/11 07:58:40;;;;;;;25.10;11.77;;;8.30;99.90;;;;;;5026065;28;20100;-74
2024/02/11 08:01:07;;;;;;;29.13;13.30;;;8.30;99.90;;;;;;5022136;28;20045;-75
2024/02/11 08:03:33;;;;;;;28.45;13.25;;;8.30;99.90;;;;;;5031171;28;20076;-74
2024/02/11 08:05:59;;;;;;;28.88;13.75;;;8.40;99.90;;;;;;5032882;28;20026;-75
2024/02/11 08:08:25;;;;;;;33.47;15.40;;;8.40;99.90;;;;;;5024609;28;20103;-75
2024/02/11 08:10:51;;;;;;;29.00;14.00;;;8.40;99.90;;;;;;5028780;28;20112;-75
2024/02/11 08:13:17;;;;;;;33.20;15.55;;;8.40;99.90;;;;;;5023729;28;20025;-74
2024/02/11 08:15:43;;;;;;;35.22;16.67;;;8.50;99.90;;;;;;5034015;28;20385;-74
2024/02/11 08:18:09;;;;;;;34.95;16.25;;;8.40;99.90;;;;;;5029878;28;20069;-74
2024/02/11 08:20:35;;;;;;;34.53;16.17;;;8.50;99.90;;;;;;5024372;28;20052;-75
2024/02/11 08:23:03;;;;;;;34.63;17.08;;;8.50;99.90;;;;;;5031850;28;20049;-74
2024/02/11 08:25:28;;;;;;;37.53;16.48;;;8.60;99.90;;;;;;5034173;28;20036;-75
2024/02/11 08:27:55;;;;;;;38.13;17.25;;;8.60;99.90;;;;;;5031472;28;20386;-74
2024/02/11 08:30:23;;;;;;;37.17;16.13;;;8.60;99.90;;;;;;5029799;28;20040;-74
2024/02/11 08:32:48;;;;;;;29.55;15.95;;;8.60;99.90;;;;;;5014482;28;20109;-75
2024/02/11 08:35:14;;;;;;;29.88;15.82;;;8.70;99.90;;;;;;5025222;28;20109;-76
2024/02/11 08:37:43;;;;;;;34.35;17.05;;;8.70;99.90;;;;;;5022624;28;20060;-75
2024/02/11 08:40:11;;;;;;;29.85;14.75;;;8.70;99.90;;;;;;5022833;28;20525;-74
2024/02/11 08:42:36;;;;;;;29.00;15.38;;;8.70;99.90;;;;;;5030715;28;20489;-74
2024/02/11 08:45:02;;;;;;;31.67;15.50;;;8.70;99.90;;;;;;5028751;28;20036;-74
2024/02/11 08:47:28;;;;;;;29.15;13.98;;;8.80;99.90;;;;;;5029271;28;20045;-75
2024/02/11 08:49:54;;;;;;;27.25;13.48;;;8.80;99.90;;;;;;5022505;28;20441;-74
2024/02/11 08:52:21;;;;;;;29.05;14.43;;;8.80;99.90;;;;;;5029342;28;20045;-74
2024/02/11 08:54:47;;;;;;;24.65;12.45;;;8.80;99.90;;;;;;5030829;28;20072;-74
2024/02/11 08:57:17;;;;;;;25.50;13.55;;;8.90;99.90;;;;;;5019561;28;20130;-74
2024/02/11 08:59:46;;;;;;;25.58;12.18;;;9.00;99.90;;;;;;5015111;28;20040;-75
2024/02/11 09:02:12;;;;;;;26.48;12.68;;;9.00;99.90;;;;;;5025873;28;20083;-74
2024/02/11 09:04:38;;;;;;;23.15;12.00;;;9.00;99.90;;;;;;5022090;28;20030;-74
2024/02/11 09:07:09;;;;;;;22.00;12.43;;;9.10;99.90;;;;;;5032156;28;20029;-76
2024/02/11 09:09:35;;;;;;;27.05;12.88;;;9.10;99.90;;;;;;5029844;28;20033;-75
2024/02/11 09:12:01;;;;;;;25.65;13.25;;;9.10;99.90;;;;;;5025365;28;20532;-75
2024/02/11 09:14:31;;;;;;;22.48;12.05;;;9.10;99.90;;;;;;5033483;28;20026;-76
2024/02/11 09:16:59;;;;;;;23.58;11.57;;;9.20;99.90;;;;;;5028094;28;20068;-76
2024/02/11 09:19:26;;;;;;;23.88;12.35;;;9.20;99.90;;;;;;5030204;28;20501;-75
2024/02/11 09:21:52;;;;;;;28.13;12.25;;;9.20;99.90;;;;;;5020584;28;20528;-75
2024/02/11 09:24:18;;;;;;;26.42;12.77;;;9.20;99.90;;;;;;5030163;28;20024;-76
2024/02/11 09:26:43;;;;;;;26.35;12.57;;;9.30;99.90;;;;;;5032922;28;20029;-76
2024/02/11 09:29:10;;;;;;;24.63;12.32;;;9.30;99.90;;;;;;5013786;28;20410;-76
2024/02/11 09:31:36;;;;;;;31.73;14.23;;;9.40;99.90;;;;;;5024366;28;20072;-76
2024/02/11 09:34:02;;;;;;;27.55;13.38;;;9.40;99.90;;;;;;5020064;28;20490;-75
2024/02/11 09:36:28;;;;;;;28.60;12.85;;;9.40;99.90;;;;;;5029911;28;20033;-75
2024/02/11 09:38:54;;;;;;;31.55;13.93;;;9.40;99.90;;;;;;5021411;28;20029;-75
2024/02/11 09:41:20;;;;;;;28.85;14.32;;;9.50;99.90;;;;;;5024030;28;20041;-76
2024/02/11 09:43:56;;;;;;;28.80;13.95;;;9.50;99.90;;;;;;5020895;28;20021;-75
2024/02/11 09:46:23;;;;;;;27.92;13.73;;;9.50;99.90;;;;;;5025253;28;20026;-75
2024/02/11 09:48:52;;;;;;;30.10;13.77;;;9.50;99.90;;;;;;5028953;28;20045;-76
2024/02/11 09:51:18;;;;;;;30.90;14.27;;;9.40;99.90;;;;;;5024439;28;20112;-75
2024/02/11 09:53:46;;;;;;;29.40;15.30;;;9.40;99.90;;;;;;5030499;28;20080;-75
2024/02/11 09:56:12;;;;;;;34.70;14.73;;;9.40;99.90;;;;;;5018265;28;20030;-75
2024/02/11 09:58:37;;;;;;;35.70;15.15;;;9.40;99.90;;;;;;5022827;28;20112;-75
2024/02/11 10:01:05;;;;;;;32.85;16.27;;;9.30;99.90;;;;;;5024202;28;20045;-75
2024/02/11 10:03:31;;;;;;;28.17;13.80;;;9.30;99.90;;;;;;5017694;28;20112;-75
2024/02/11 10:05:58;;;;;;;29.08;15.07;;;9.30;99.90;;;;;;5026264;28;20513;-75
2024/02/11 10:08:24;;;;;;;30.35;14.38;;;9.30;99.90;;;;;;5029984;28;20167;-74
2024/02/11 10:10:50;;;;;;;31.35;14.02;;;9.40;99.90;;;;;;5027602;28;21391;-75
2024/02/11 10:13:19;;;;;;;28.15;14.93;;;9.30;99.90;;;;;;5028928;28;20025;-74
2024/02/11 10:15:49;;;;;;;27.77;13.70;;;9.40;99.90;;;;;;5030170;28;20021;-75
2024/02/11 10:18:17;;;;;;;32.33;15.93;;;9.40;99.90;;;;;;5011801;28;20021;-74
2024/02/11 10:20:46;;;;;;;29.40;13.40;;;9.50;99.90;;;;;;5016914;28;20037;-75
2024/02/11 10:23:13;;;;;;;26.30;12.40;;;9.40;99.90;;;;;;5027589;28;20487;-75
2024/02/11 10:25:39;;;;;;;25.17;12.23;;;9.50;99.90;;;;;;5029837;28;20469;-75
2024/02/11 10:28:06;;;;;;;28.60;12.65;;;9.40;99.90;;;;;;5015580;28;20037;-75
2024/02/11 10:30:34;;;;;;;29.42;13.25;;;9.50;99.90;;;;;;5025311;28;20065;-74
2024/02/11 10:33:01;;;;;;;24.33;12.55;;;9.50;99.90;;;;;;5017749;28;20559;-75
2024/02/11 10:35:28;;;;;;;33.38;12.18;;;9.50;99.90;;;;;;5015477;28;20025;-74
2024/02/11 10:37:55;;;;;;;29.13;12.73;;;9.50;99.90;;;;;;5030632;28;20025;-74
2024/02/11 10:40:25;;;;;;;25.55;11.70;;;9.50;99.90;;;;;;5025511;28;20509;-74
2024/02/11 10:42:51;;;;;;;28.20;11.45;;;9.50;99.90;;;;;;5013454;28;20032;-75
2024/02/11 10:45:18;;;;;;;27.08;11.93;;;9.50;99.90;;;;;;5019565;28;20022;-76
2024/02/11 10:47:43;;;;;;;21.70;11.00;;;9.60;99.90;;;;;;5013827;28;20120;-76
2024/02/11 10:50:13;;;;;;;25.67;11.43;;;9.60;99.90;;;;;;5009138;28;20572;-75
2024/02/11 10:52:43;;;;;;;31.13;11.80;;;9.60;99.90;;;;;;5015735;28;20137;-75
2024/02/11 10:55:14;;;;;;;23.40;10.02;;;9.60;99.90;;;;;;5019522;28;20018;-74
2024/02/11 10:57:52;;;;;;;22.77;11.02;;;9.60;99.90;;;;;;5024336;28;20382;-75
2024/02/11 11:00:20;;;;;;;22.95;10.48;;;9.70;99.90;;;;;;5025381;28;20032;-74
2024/02/11 11:02:52;;;;;;;27.15;10.80;;;9.70;99.90;;;;;;5024914;28;20032;-74
2024/02/11 11:05:20;;;;;;;28.90;10.53;;;9.60;99.90;;;;;;5017982;28;20078;-74
2024/02/11 11:07:52;;;;;;;24.48;11.35;;;9.60;99.90;;;;;;5020353;28;20443;-75
2024/02/11 11:10:18;;;;;;;25.58;10.75;;;9.70;99.90;;;;;;5023341;28;20029;-74
2024/02/11 11:12:54;;;;;;;30.60;10.40;;;9.70;99.90;;;;;;5026777;28;20033;-75
2024/02/11 11:15:24;;;;;;;20.42;10.48;;;9.70;99.90;;;;;;5027670;28;20021;-75
2024/02/11 11:17:50;;;;;;;21.00;9.73;;;9.70;99.90;;;;;;5020678;28;20037;-75
2024/02/11 11:20:18;;;;;;;23.92;9.77;;;9.80;99.90;;;;;;5019557;28;20036;-75
2024/02/11 11:22:50;;;;;;;21.70;9.00;;;9.80;99.90;;;;;;5027437;28;20025;-75
2024/02/11 11:25:15;;;;;;;25.47;9.93;;;9.80;99.90;;;;;;5023607;28;20478;-75
2024/02/11 11:27:41;;;;;;;19.63;10.45;;;9.90;99.90;;;;;;5012570;28;20291;-75
2024/02/11 11:30:09;;;;;;;28.40;10.15;;;10.00;99.90;;;;;;5026398;28;20125;-75
2024/02/11 11:32:45;;;;;;;23.30;9.73;;;10.00;99.90;;;;;;5028102;28;20030;-75
2024/02/11 11:35:15;;;;;;;23.48;8.85;;;10.10;99.90;;;;;;5029059;28;20026;-75
2024/02/11 11:37:41;;;;;;;20.95;9.63;;;10.10;99.90;;;;;;5026041;28;20021;-75
2024/02/11 11:40:08;;;;;;;22.92;9.50;;;10.10;99.90;;;;;;5030440;28;20524;-75
2024/02/11 11:42:34;;;;;;;22.42;9.25;;;10.10;99.90;;;;;;5019999;28;20113;-75
2024/02/11 11:45:10;;;;;;;21.45;9.02;;;10.10;99.90;;;;;;5018345;28;20386;-76
2024/02/11 11:47:39;;;;;;;20.48;8.65;;;10.10;99.90;;;;;;5015540;28;20037;-75
2024/02/11 11:50:08;;;;;;;19.38;7.97;;;10.10;99.90;;;;;;5028333;28;20049;-75
2024/02/11 11:52:36;;;;;;;21.52;9.05;;;10.00;99.90;;;;;;5030267;28;20038;-75
2024/02/11 11:55:05;;;;;;;24.40;8.90;;;10.00;99.90;;;;;;5028227;28;20603;-75
2024/02/11 11:57:31;;;;;;;25.42;9.75;;;10.10;99.90;;;;;;5020744;28;20413;-75
2024/02/11 11:59:58;;;;;;;18.70;8.65;;;10.10;99.90;;;;;;5029099;28;20025;-75
2024/02/11 12:02:26;;;;;;;24.33;9.63;;;10.00;99.90;;;;;;5029177;28;20405;-75
2024/02/11 12:04:55;;;;;;;22.02;9.35;;;10.00;99.90;;;;;;5021182;28;20053;-75
2024/02/11 12:07:24;;;;;;;23.60;8.65;;;10.10;99.90;;;;;;5017949;28;20069;-74
2024/02/11 12:09:52;;;;;;;16.17;8.23;;;10.10;99.90;;;;;;5018867;28;20022;-74
2024/02/11 12:12:18;;;;;;;26.30;9.82;;;10.10;99.90;;;;;;5027703;28;20045;-76
2024/02/11 12:14:46;;;;;;;21.60;9.43;;;10.20;99.90;;;;;;5022682;28;20067;-73
2024/02/11 12:17:12;;;;;;;24.23;9.65;;;10.30;99.90;;;;;;5021033;28;20155;-73
2024/02/11 12:19:40;;;;;;;24.60;9.48;;;10.30;99.90;;;;;;5030332;28;20017;-72
2024/02/11 12:22:06;;;;;;;21.42;9.20;;;10.40;99.90;;;;;;5028105;28;20409;-73
2024/02/11 12:24:36;;;;;;;18.40;9.15;;;10.40;99.90;;;;;;5024437;28;20032;-73
2024/02/11 12:27:02;;;;;;;25.60;10.48;;;10.40;99.90;;;;;;5016236;28;20022;-75
2024/02/11 12:29:27;;;;;;;18.10;8.48;;;10.40;99.90;;;;;;5032024;28;20031;-75
2024/02/11 12:31:56;;;;;;;27.30;9.13;;;10.40;99.90;;;;;;5026793;28;20034;-76
2024/02/11 12:34:24;;;;;;;22.83;8.73;;;10.40;99.90;;;;;;5026075;28;20017;-75